createdAt,value
2023-06-29T00:02:51.806Z,98117.53
2023-06-29T00:05:56.566Z,98126.56
2023-06-29T00:09:01.073Z,98126.94
2023-06-29T00:12:05.524Z,98123.09
2023-06-29T00:15:09.529Z,98124.97
2023-06-29T00:18:14.015Z,98123.94
2023-06-29T00:21:17.655Z,98129.59
2023-06-29T00:24:22.121Z,98124.28
2023-06-29T00:27:25.936Z,98129.69
2023-06-29T00:30:29.331Z,98128.00
2023-06-29T00:33:32.884Z,98125.31
2023-06-29T00:36:36.083Z,98132.91
2023-06-29T00:39:41.223Z,98129.78
2023-06-29T00:42:44.377Z,98125.19
2023-06-29T00:45:47.707Z,98117.88
2023-06-29T00:48:50.891Z,98130.41
2023-06-29T00:51:55.953Z,98117.00
2023-06-29T00:55:00.900Z,98114.78
2023-06-29T00:58:06.884Z,98110.25
2023-06-29T01:01:10.101Z,98109.97
2023-06-29T01:04:18.516Z,98115.41
2023-06-29T01:07:28.633Z,98100.59
2023-06-29T01:10:35.560Z,98116.94
2023-06-29T01:13:40.880Z,98114.56
2023-06-29T01:16:45.695Z,98115.19
2023-06-29T01:19:50.927Z,98112.31
2023-06-29T01:22:58.118Z,98110.56
2023-06-29T01:26:05.268Z,98103.53
2023-06-29T01:29:08.473Z,98111.75
2023-06-29T01:32:12.790Z,98110.44
2023-06-29T01:35:16.370Z,98104.56
2023-06-29T01:38:26.105Z,98101.16
2023-06-29T01:41:34.337Z,98100.31
2023-06-29T01:44:37.733Z,98108.53
2023-06-29T01:47:47.756Z,98105.00
2023-06-29T01:50:51.648Z,98110.47
2023-06-29T01:53:55.545Z,98104.16
2023-06-29T01:57:00.436Z,98102.66
2023-06-29T02:00:04.831Z,98108.84
2023-06-29T02:03:17.316Z,98114.50
2023-06-29T02:06:21.852Z,98108.03
2023-06-29T02:09:25.063Z,98110.84
2023-06-29T02:12:29.623Z,98111.03
2023-06-29T02:15:32.881Z,98110.19
2023-06-29T02:18:42.320Z,98116.41
2023-06-29T02:21:45.564Z,98116.84
2023-06-29T02:24:48.898Z,98107.16
2023-06-29T02:27:53.437Z,98112.22
2023-06-29T02:30:56.672Z,98110.84
2023-06-29T02:34:00.269Z,98098.91
2023-06-29T02:37:03.888Z,98094.69
2023-06-29T02:40:08.338Z,98097.78
2023-06-29T02:43:13.268Z,98089.25
2023-06-29T02:46:17.188Z,98089.56
2023-06-29T02:49:21.185Z,98101.31
2023-06-29T02:52:25.371Z,98096.03
2023-06-29T02:55:30.008Z,98098.28
2023-06-29T02:58:34.538Z,98098.22
2023-06-29T03:01:41.621Z,98087.09
2023-06-29T03:04:44.792Z,98091.47
2023-06-29T03:07:47.984Z,98099.06
2023-06-29T03:10:51.165Z,98087.16
2023-06-29T03:13:57.131Z,98089.09
2023-06-29T03:17:00.439Z,98084.91
2023-06-29T03:20:03.648Z,98090.72
2023-06-29T03:23:07.067Z,98079.06
2023-06-29T03:26:10.227Z,98086.31
2023-06-29T03:29:14.990Z,98085.81
2023-06-29T03:35:10.835Z,98027.41
2023-06-29T03:38:14.080Z,98085.63
2023-06-29T03:41:17.408Z,98080.38
2023-06-29T03:44:20.585Z,98079.63
2023-06-29T03:47:23.846Z,98083.41
2023-06-29T03:50:28.653Z,98077.63
2023-06-29T03:53:31.813Z,98080.72
2023-06-29T03:56:35.174Z,98078.75
2023-06-29T03:59:38.481Z,98072.06
2023-06-29T04:02:48.526Z,98073.50
2023-06-29T04:05:53.017Z,98078.06
2023-06-29T04:08:56.201Z,98073.28
2023-06-29T04:11:59.489Z,98070.19
2023-06-29T04:15:02.651Z,98069.13
2023-06-29T04:18:06.605Z,98059.38
2023-06-29T04:21:11.415Z,98065.00
2023-06-29T04:24:14.753Z,98067.59
2023-06-29T04:27:18.753Z,98057.69
2023-06-29T04:30:22.044Z,98059.16
2023-06-29T04:33:25.449Z,98054.06
2023-06-29T04:36:30.474Z,98058.63
2023-06-29T04:39:33.800Z,98066.16
2023-06-29T04:42:45.042Z,98051.97
2023-06-29T04:45:48.400Z,98047.59
2023-06-29T04:48:51.715Z,98046.03
2023-06-29T04:51:58.982Z,98049.13
2023-06-29T04:55:03.624Z,98057.34
2023-06-29T04:58:07.245Z,98061.16
2023-06-29T05:01:10.669Z,98052.50
2023-06-29T05:04:13.846Z,98034.97
2023-06-29T05:07:18.957Z,98050.72
2023-06-29T05:10:22.435Z,98043.38
2023-06-29T05:13:25.584Z,98048.91
2023-06-29T05:16:30.138Z,98051.34
2023-06-29T05:19:35.430Z,98048.13
2023-06-29T05:22:40.077Z,98045.88
2023-06-29T05:25:43.575Z,98048.25
2023-06-29T05:29:03.781Z,98034.56
2023-06-29T05:32:08.541Z,98049.97
2023-06-29T05:35:11.652Z,98042.19
2023-06-29T05:38:16.420Z,98040.72
2023-06-29T05:41:19.651Z,98041.75
2023-06-29T05:44:22.763Z,98032.34
2023-06-29T05:47:25.968Z,98034.41
2023-06-29T05:50:29.215Z,98029.72
2023-06-29T05:53:33.897Z,98036.09
2023-06-29T05:56:37.143Z,98039.34
2023-06-29T05:59:40.346Z,98024.91
2023-06-29T06:02:47.760Z,98035.00
2023-06-29T06:05:51.113Z,98033.97
2023-06-29T06:08:55.857Z,98028.78
2023-06-29T06:11:59.026Z,98034.88
2023-06-29T06:15:02.200Z,98027.13
2023-06-29T06:18:05.999Z,98032.81
2023-06-29T06:21:09.416Z,98026.72
2023-06-29T06:24:13.902Z,98021.50
2023-06-29T06:27:17.205Z,98017.44
2023-06-29T06:30:22.102Z,98019.97
2023-06-29T06:33:25.325Z,98010.56
2023-06-29T06:36:31.182Z,98021.00
2023-06-29T06:39:36.123Z,98010.94
2023-06-29T06:42:40.391Z,97999.69
2023-06-29T06:45:43.613Z,98011.81
2023-06-29T06:48:48.686Z,98010.97
2023-06-29T06:51:51.869Z,98002.44
2023-06-29T06:54:58.190Z,98009.31
2023-06-29T06:58:01.423Z,98011.50
2023-06-29T07:01:05.199Z,98011.03
2023-06-29T07:04:08.403Z,98011.56
2023-06-29T07:07:11.691Z,98009.81
2023-06-29T07:10:16.313Z,98012.84
2023-06-29T07:13:20.071Z,98012.00
2023-06-29T07:16:24.620Z,98005.59
2023-06-29T07:25:41.789Z,97999.44
2023-06-29T07:28:45.292Z,97995.06
2023-06-29T07:31:48.746Z,97979.25
2023-06-29T07:34:52.068Z,97993.09
2023-06-29T07:37:55.226Z,97987.91
2023-06-29T07:40:59.760Z,97980.06
2023-06-29T07:44:03.058Z,97979.97
2023-06-29T07:47:07.307Z,97982.34
2023-06-29T07:50:12.178Z,97974.50
2023-06-29T07:53:15.342Z,97977.84
2023-06-29T07:56:20.332Z,97978.31
2023-06-29T07:59:24.119Z,97965.56
2023-06-29T08:02:27.361Z,97968.53
2023-06-29T08:08:37.089Z,97969.66
2023-06-29T08:11:41.748Z,97966.56
2023-06-29T08:14:45.015Z,97952.97
2023-06-29T08:17:48.376Z,97950.88
2023-06-29T08:20:52.186Z,97951.38
2023-06-29T08:23:55.424Z,97947.47
2023-06-29T08:27:01.084Z,97916.78
2023-06-29T08:30:04.858Z,97944.09
2023-06-29T08:33:08.422Z,97940.50
2023-06-29T08:36:11.756Z,97943.78
2023-06-29T08:39:15.031Z,97926.81
2023-06-29T08:42:20.801Z,97940.44
2023-06-29T08:45:24.002Z,97936.91
2023-06-29T08:48:28.059Z,97937.59
2023-06-29T08:51:35.972Z,97928.59
2023-06-29T08:54:40.978Z,97928.75
2023-06-29T08:57:46.131Z,97929.66
2023-06-29T09:00:50.265Z,97919.88
2023-06-29T09:03:54.020Z,97928.53
2023-06-29T09:06:58.066Z,97929.47
2023-06-29T09:10:01.428Z,97925.56
2023-06-29T09:13:07.317Z,97912.25
2023-06-29T09:16:11.698Z,97918.00
2023-06-29T09:19:15.146Z,97915.22
2023-06-29T09:22:19.189Z,97907.09
2023-06-29T09:25:34.024Z,97910.22
2023-06-29T09:28:46.898Z,97901.53
2023-06-29T09:35:11.384Z,97887.94
2023-06-29T09:38:16.144Z,97898.81
2023-06-29T09:41:19.709Z,97886.53
2023-06-29T09:44:25.975Z,97897.16
2023-06-29T09:50:37.592Z,97875.59
2023-06-29T09:53:40.892Z,97875.22
2023-06-29T09:56:45.414Z,97867.78
2023-06-29T09:59:50.808Z,97876.50
2023-06-29T10:02:55.045Z,97876.25
2023-06-29T10:06:08.903Z,97871.59
2023-06-29T10:09:16.735Z,97866.25
2023-06-29T10:12:21.024Z,97874.53
2023-06-29T10:15:27.794Z,97860.69
2023-06-29T10:18:34.519Z,97860.00
2023-06-29T10:21:39.364Z,97855.59
2023-06-29T10:24:49.938Z,97849.78
2023-06-29T10:27:56.137Z,97857.00
2023-06-29T10:31:00.816Z,97850.75
2023-06-29T10:34:08.267Z,97857.75
2023-06-29T10:37:31.103Z,97853.81
2023-06-29T10:40:35.214Z,97849.22
2023-06-29T10:43:56.460Z,97841.88
2023-06-29T10:46:59.736Z,97838.53
2023-06-29T10:50:20.159Z,97835.66
2023-06-29T10:53:24.888Z,97837.19
2023-06-29T10:56:32.447Z,97838.28
2023-06-29T10:59:38.161Z,97828.03
2023-06-29T11:02:50.200Z,97792.06
2023-06-29T11:05:54.688Z,97821.94
2023-06-29T11:09:02.620Z,97821.47
2023-06-29T11:12:07.151Z,97818.13
2023-06-29T11:15:19.673Z,97818.78
2023-06-29T11:18:24.010Z,97799.22
2023-06-29T11:21:27.997Z,97810.19
2023-06-29T11:24:32.647Z,97801.44
2023-06-29T11:27:36.253Z,97797.88
2023-06-29T11:30:41.483Z,97792.84
2023-06-29T11:33:51.528Z,97788.47
2023-06-29T11:40:08.689Z,97787.84
2023-06-29T11:43:12.267Z,97781.31
2023-06-29T11:46:16.106Z,97771.94
2023-06-29T11:49:21.130Z,97767.75
2023-06-29T11:52:26.559Z,97765.25
2023-06-29T11:55:31.737Z,97758.91
2023-06-29T11:58:35.953Z,97756.22
2023-06-29T12:01:39.758Z,97745.97
2023-06-29T12:04:56.205Z,97747.63
2023-06-29T12:08:07.884Z,97751.03
2023-06-29T12:11:22.893Z,97742.19
2023-06-29T12:14:28.980Z,97732.19
2023-06-29T12:20:43.622Z,97749.34
2023-06-29T12:23:47.338Z,97747.44
2023-06-29T12:26:52.164Z,97736.53
2023-06-29T12:29:55.274Z,97733.22
2023-06-29T12:32:58.534Z,97729.41
2023-06-29T12:36:02.114Z,97729.84
2023-06-29T12:39:05.616Z,97716.66
2023-06-29T12:42:10.205Z,97731.75
2023-06-29T12:45:13.372Z,97718.59
2023-06-29T12:48:16.772Z,97722.25
2023-06-29T12:51:19.937Z,97717.78
2023-06-29T12:54:23.125Z,97715.59
2023-06-29T12:57:29.529Z,97711.78
2023-06-29T13:00:32.751Z,97712.72
2023-06-29T13:03:36.637Z,97706.78
2023-06-29T13:06:40.453Z,97703.03
2023-06-29T13:09:44.301Z,97700.78
2023-06-29T13:12:49.533Z,97685.72
2023-06-29T13:15:52.747Z,97698.72
2023-06-29T13:18:56.023Z,97691.25
2023-06-29T13:21:59.359Z,97690.00
2023-06-29T13:25:02.549Z,97691.31
2023-06-29T13:28:07.571Z,97688.16
2023-06-29T13:31:10.874Z,97683.56
2023-06-29T13:34:14.477Z,97681.53
2023-06-29T13:37:17.996Z,97678.25
2023-06-29T13:40:21.228Z,97675.97
2023-06-29T13:43:25.933Z,97677.38
2023-06-29T13:46:29.200Z,97678.94
2023-06-29T13:49:32.345Z,97677.19
2023-06-29T13:52:36.280Z,97676.75
2023-06-29T13:55:39.482Z,97668.13
2023-06-29T13:58:44.339Z,97669.38
2023-06-29T14:01:47.618Z,97658.97
2023-06-29T14:04:50.908Z,97657.94
2023-06-29T14:07:54.141Z,97659.59
2023-06-29T14:10:57.515Z,97645.97
2023-06-29T14:14:02.183Z,97648.91
2023-06-29T14:17:05.801Z,97655.91
2023-06-29T14:20:10.001Z,97648.91
2023-06-29T14:23:13.672Z,97647.34
2023-06-29T14:26:17.048Z,97649.16
2023-06-29T14:29:21.652Z,97640.09
2023-06-29T14:32:24.863Z,97642.06
2023-06-29T14:35:31.909Z,97633.63
2023-06-29T14:38:37.401Z,97634.16
2023-06-29T14:41:52.706Z,97640.16
2023-06-29T14:44:57.396Z,97624.16
2023-06-29T14:48:00.762Z,97636.03
2023-06-29T14:51:04.122Z,97639.16
2023-06-29T14:54:07.414Z,97630.03
2023-06-29T14:57:10.893Z,97623.44
2023-06-29T15:00:17.090Z,97630.81
2023-06-29T15:03:20.652Z,97630.31
2023-06-29T15:06:23.866Z,97622.84
2023-06-29T15:09:27.690Z,97620.16
2023-06-29T15:12:30.920Z,97614.44
2023-06-29T15:15:35.564Z,97615.88
2023-06-29T15:18:46.844Z,97610.13
2023-06-29T15:21:58.436Z,97612.03
2023-06-29T15:25:01.691Z,97614.34
2023-06-29T15:28:04.921Z,97610.72
2023-06-29T15:35:11.575Z,97598.06
2023-06-29T15:38:14.770Z,97600.50
2023-06-29T15:41:18.545Z,97601.41
2023-06-29T15:44:21.706Z,97589.28
2023-06-29T15:47:25.030Z,97589.78
2023-06-29T15:50:29.481Z,97587.72
2023-06-29T15:53:32.803Z,97588.84
2023-06-29T15:56:36.512Z,97579.59
2023-06-29T15:59:39.785Z,97585.78
2023-06-29T16:02:47.454Z,97583.31
2023-06-29T16:05:52.342Z,97576.84
2023-06-29T16:08:55.569Z,97581.88
2023-06-29T16:11:58.882Z,97585.50
2023-06-29T16:15:02.219Z,97587.94
2023-06-29T16:18:05.547Z,97591.13
2023-06-29T16:21:10.312Z,97591.56
2023-06-29T16:24:13.534Z,97597.69
2023-06-29T16:27:16.726Z,97597.91
2023-06-29T16:30:20.045Z,97573.94
2023-06-29T16:33:23.620Z,97602.63
2023-06-29T16:36:28.323Z,97599.44
2023-06-29T16:39:31.624Z,97599.59
2023-06-29T16:42:34.852Z,97603.34
2023-06-29T16:45:38.094Z,97602.72
2023-06-29T16:48:41.407Z,97599.50
2023-06-29T16:51:46.064Z,97606.66
2023-06-29T16:54:49.610Z,97604.47
2023-06-29T16:57:53.303Z,97605.03
2023-06-29T17:00:56.668Z,97594.78
2023-06-29T17:03:59.893Z,97598.97
2023-06-29T17:07:04.843Z,97606.97
2023-06-29T17:10:08.822Z,97595.63
2023-06-29T17:13:12.014Z,97598.28
2023-06-29T17:16:15.712Z,97602.44
2023-06-29T17:19:18.897Z,97599.31
2023-06-29T17:22:23.464Z,97592.56
2023-06-29T17:25:26.634Z,97608.78
2023-06-29T17:28:29.830Z,97599.31
2023-06-29T17:31:33.270Z,97600.09
2023-06-29T17:34:36.893Z,97603.13
2023-06-29T17:37:42.457Z,97601.25
2023-06-29T17:40:45.704Z,97594.34
2023-06-29T17:43:48.869Z,97597.00
2023-06-29T17:46:52.165Z,97608.50
2023-06-29T17:49:55.313Z,97602.66
2023-06-29T17:52:59.866Z,97600.25
2023-06-29T17:56:03.054Z,97605.44
2023-06-29T17:59:06.866Z,97598.97
2023-06-29T18:02:10.107Z,97603.09
2023-06-29T18:05:13.335Z,97604.94
2023-06-29T18:08:18.324Z,97597.03
2023-06-29T18:11:21.507Z,97600.00
2023-06-29T18:14:24.658Z,97600.06
2023-06-29T18:17:30.928Z,97603.19
2023-06-29T18:20:34.462Z,97606.69
2023-06-29T18:23:39.037Z,97602.13
2023-06-29T18:26:42.218Z,97606.25
2023-06-29T18:29:45.393Z,97604.31
2023-06-29T18:32:50.762Z,97606.31
2023-06-29T18:35:54.028Z,97603.31
2023-06-29T18:38:59.066Z,97599.19
2023-06-29T18:42:02.282Z,97601.66
2023-06-29T18:45:06.816Z,97602.16
2023-06-29T18:48:10.273Z,97601.50
2023-06-29T18:51:13.446Z,97599.34
2023-06-29T18:54:18.001Z,97596.22
2023-06-29T18:57:21.282Z,97597.53
2023-06-29T19:00:25.606Z,97588.59
2023-06-29T19:03:28.927Z,97527.13
2023-06-29T19:06:32.438Z,97587.47
2023-06-29T19:09:36.919Z,97592.91
2023-06-29T19:12:40.233Z,97595.22
2023-06-29T19:15:43.800Z,97600.69
2023-06-29T19:18:47.215Z,97597.38
2023-06-29T19:21:50.664Z,97599.72
2023-06-29T19:24:55.294Z,97599.53
2023-06-29T19:27:58.557Z,97601.69
2023-06-29T19:31:01.781Z,97607.38
2023-06-29T19:34:06.616Z,97612.31
2023-06-29T19:37:11.290Z,97609.81
2023-06-29T19:40:15.922Z,97628.66
2023-06-29T19:43:19.474Z,97630.00
2023-06-29T19:46:22.727Z,97629.00
2023-06-29T19:49:27.918Z,97636.63
2023-06-29T19:52:31.139Z,97641.94
2023-06-29T19:55:36.433Z,97646.53
2023-06-29T19:58:41.824Z,97638.94
2023-06-29T20:01:45.120Z,97649.53
2023-06-29T20:04:48.321Z,97647.47
2023-06-29T20:07:52.181Z,97648.09
2023-06-29T20:10:56.776Z,97641.22
2023-06-29T20:14:00.163Z,97643.06
2023-06-29T20:17:03.679Z,97641.31
2023-06-29T20:20:08.912Z,97634.00
2023-06-29T20:23:12.641Z,97637.84
2023-06-29T20:26:17.255Z,97628.38
2023-06-29T20:29:20.486Z,97633.22
2023-06-29T20:32:23.835Z,97638.41
2023-06-29T20:35:27.006Z,97637.22
2023-06-29T20:38:30.216Z,97637.53
2023-06-29T20:41:34.783Z,97654.00
2023-06-29T20:44:38.102Z,97648.31
2023-06-29T20:47:48.127Z,97648.06
2023-06-29T20:51:00.778Z,97649.28
2023-06-29T20:54:14.895Z,97644.38
2023-06-29T20:57:23.248Z,97640.19
2023-06-29T21:00:26.597Z,97620.44
2023-06-29T21:03:34.212Z,97641.69
2023-06-29T21:06:37.913Z,97606.38
2023-06-29T21:09:42.778Z,97645.34
2023-06-29T21:12:49.481Z,97628.97
2023-06-29T21:15:53.089Z,97634.78
2023-06-29T21:18:56.862Z,97634.91
2023-06-29T21:22:00.467Z,97637.44
2023-06-29T21:25:04.258Z,97640.72
2023-06-29T21:28:11.673Z,97644.25
2023-06-29T21:35:11.877Z,97636.84
2023-06-29T21:38:15.594Z,97643.50
2023-06-29T21:41:18.776Z,97637.25
2023-06-29T21:44:21.979Z,97635.72
2023-06-29T21:47:25.231Z,97630.22
2023-06-29T21:50:29.761Z,97632.19
2023-06-29T21:53:32.944Z,97635.81
2023-06-29T21:56:36.235Z,97629.34
2023-06-29T21:59:39.358Z,97630.75
2023-06-29T22:02:47.408Z,97631.28
2023-06-29T22:05:52.026Z,97628.94
2023-06-29T22:08:55.339Z,97627.59
2023-06-29T22:11:58.635Z,97634.53
2023-06-29T22:15:01.776Z,97637.47
2023-06-29T22:18:07.942Z,97631.66
2023-06-29T22:21:13.372Z,97630.81
2023-06-29T22:24:16.522Z,97629.31
2023-06-29T22:27:19.695Z,97630.38
2023-06-29T22:30:22.830Z,97628.66
2023-06-29T22:33:26.327Z,97614.88
2023-06-29T22:36:30.819Z,97636.47
2023-06-29T22:39:33.952Z,97630.91
2023-06-29T22:42:37.666Z,97631.78
2023-06-29T22:45:41.302Z,97634.59
2023-06-29T22:48:45.107Z,97634.75
2023-06-29T22:51:49.638Z,97633.97
2023-06-29T22:54:53.717Z,97635.31
2023-06-29T22:57:56.897Z,97634.00
2023-06-29T23:01:01.974Z,97630.75
2023-06-29T23:04:05.638Z,97619.44
2023-06-29T23:07:10.234Z,97619.94
2023-06-29T23:10:14.451Z,97631.09
2023-06-29T23:13:18.067Z,97632.25
2023-06-29T23:16:21.503Z,97632.78
2023-06-29T23:19:24.739Z,97633.66
2023-06-29T23:22:29.547Z,97643.63
2023-06-29T23:25:34.122Z,97630.47
2023-06-29T23:28:37.857Z,97636.13
2023-06-29T23:31:41.449Z,97640.66
2023-06-29T23:34:44.761Z,97638.97
2023-06-29T23:37:49.485Z,97583.16
2023-06-29T23:40:52.650Z,97641.91
2023-06-29T23:44:03.892Z,97613.00
2023-06-29T23:47:11.105Z,97638.31
2023-06-29T23:50:14.454Z,97632.78
2023-06-29T23:53:19.402Z,97624.06
2023-06-29T23:56:22.542Z,97625.00
2023-06-29T23:59:25.636Z,97622.25
